MWCRMKJS

Guest
Details From MWCR - Owen Roberts Intl
To MKJS - Sangster Intl
Flight Number -
Tags generated
Created
Modified
Stats Distance 201 nm / 373 km
Max Altitude 21,100 ft / 6,431 m
Waypoints 3
Social Downloads 1
Likes 0
Share VATSIM

Download

Looking for another format? Having issues loading an existing format? Contact us
Advertisement - Login to hide

Notes

Basic altitude profile: - Ascent Rate: 2500ft/min - Ascent Speed: 360kts - Cruise Altitude: 28000ft - Cruise Speed: 480kts - Descent Rate: 3600ft/min - Descent Speed: 260kts Options: - Use NATs: yes - Use PACOTS: yes - Use low airways: no - Use high airways: yes

Route

MWCR BIKOG MKJS

ID Type Via Altitude Latitude Longitude Leg Dist Tot Dist Heading (true) Name
O MWCR APT - 0 ft / 0 m 19.29278˚ -81.35776˚ - 0 nm - Owen Roberts Intl
BIKOG FIX - 21,100 ft / 6,431 m 18.91206˚ -79.68267˚ 97 nm 97 nm 103° / 104° -
O MKJS APT - 0 ft / 0 m 18.50355˚ -77.91370˚ 103 nm 201 nm 103° / 104° Sangster Intl

Altitude Profile

Advertisement - Login to hide

Weather


0- 5 10 15 20 25 30 35+ Temperature / ° C

Clouds and Precipitation
Forecast for 2017-12-12 00:00 UTC. Updated 2 hours ago

Ground ~20,000 ft ~40,000 ft Winds

MWCR

Details ICAO MWCR (GCM)
Name Owen Roberts Intl
Region Cayman Islands
Timezone America/Cayman (UTC-5.0)
Stats Elevation 7 ft / 2 m (AMSL)
Location 19.292776° -81.357760°
Runways 1
Magnetic Variation 4.988° W

METAR

MWCR 112300Z 02013KT 9999 OVC016 23/18 Q1017

Decode

TAF

Not found

Departure Runways

ID Width Length Bearing (true) Bearing (mag) Surface Threshold Offset Overrun Length
08 148 ft / 45 m 7,016 ft / 2,139 m 75.84° 80.83° Asphalt 0 ft / 0 m 0 ft / 0 m
26 148 ft / 45 m 7,016 ft / 2,139 m 255.85° 260.84° Asphalt 400 ft / 122 m 0 ft / 0 m

MKJS

Details ICAO MKJS (MBJ)
Name Sangster Intl
Region Jamaica
Timezone America/Jamaica (UTC-5.0)
Stats Elevation 6 ft / 2 m (AMSL)
Location 18.503549° -77.913698°
Runways 1
Magnetic Variation 6.955° W

METAR

MKJS 112300Z 02022KT 9999 -SHRA VCSH OVC018 25/23 Q1013

Decode

TAF

TAF MKJS 111715Z 1118/1218 03020KT 9999 SCT016 SCT034 TEMPO 1118/1124 6000 TSRA SCT016 SCT018CB BKN032 BECMG 1214/1216 07015KT SCT020 FEW022CB SCT032

Decode

Destination Runways

ID Width Length Bearing (true) Bearing (mag) Surface Threshold Offset Overrun Length
07 161 ft / 49 m 8,495 ft / 2,589 m 65.37° 72.32° Asphalt 220 ft / 67 m 312 ft / 95 m
25 161 ft / 49 m 8,495 ft / 2,589 m 245.37° 252.32° Asphalt 577 ft / 176 m 200 ft / 61 m

Approach Navaids

Runway Type Ident Frequency Range Bearing (true) Bearing (mag) Slope Elevation
07 Localiser ISIA 109.50 MHz 18 nm / 33 km 65.41° 72.36° - 4 ft / 1 m (AMSL)
07 Glidescope ISIA 109.50 MHz 10 nm / 19 km 65.37° 72.33° 3.00° 4 ft / 1 m (AMSL)

Popular Alternatives